Time;durP1;ratioP1;P1;durP2;ratioP2;P2;SDS_P1;SDS_P2;PMS_P1;PMS_P2;Temp;Humidity;BMP_temperature;BMP_pressure;BME280_temperature;BME280_humidity;BME280_pressure;Samples;Min_cycle;Max_cycle;Signal;HPM_P1;HPM_P2
2023/04/23 00:00:13;;;;;;;;;;;;;;;;;;5037259;28;19909;-22
2023/04/23 00:02:39;;;;;;;;;;;;;;;;;;5019637;28;19920;-22
2023/04/23 00:05:05;;;;;;;;;;;;;;;;;;5037035;28;19917;-21
2023/04/23 00:07:31;;;;;;;;;;;;;;;;;;5037215;28;19963;-22
2023/04/23 00:09:57;;;;;;;;;;;;;;;;;;5037408;28;19996;-23
2023/04/23 00:12:23;;;;;;;;;;;;;;;;;;5036942;28;19944;-22
2023/04/23 00:14:49;;;;;;;;;;;;;;;;;;5037202;28;19917;-23
2023/04/23 00:17:15;;;;;;;;;;;;;;;;;;5036935;28;19932;-21
2023/04/23 00:19:41;;;;;;;;;;;;;;;;;;5036016;28;19909;-21
2023/04/23 00:22:07;;;;;;;;;;;;;;;;;;5037045;28;19924;-21
2023/04/23 00:24:35;;;;;;;;;;;;;;;;;;5036733;28;19913;-22
2023/04/23 00:27:01;;;;;;;;;;;;;;;;;;5036840;28;19909;-21
2023/04/23 00:29:27;;;;;;;;;;;;;;;;;;5036948;28;19975;-21
2023/04/23 00:31:52;;;;;;;;;;;;;;;;;;5036809;28;19913;-22
2023/04/23 00:34:18;;;;;;;;;;;;;;;;;;5036618;28;19982;-22
2023/04/23 00:36:44;;;;;;;;;;;;;;;;;;5036466;28;20255;-22
2023/04/23 00:39:10;;;;;;;;;;;;;;;;;;5036803;28;19909;-20
2023/04/23 00:41:36;;;;;;;;;;;;;;;;;;5036507;28;19921;-21
2023/04/23 00:44:02;;;;;;;;;;;;;;;;;;5018925;28;19909;-23
2023/04/23 00:46:28;;;;;;;;;;;;;;;;;;5037158;28;19909;-22
2023/04/23 00:48:54;;;;;;;;;;;;;;;;;;5036620;28;19909;-22
2023/04/23 00:51:20;;;;;;;;;;;;;;;;;;5036540;28;20276;-22
2023/04/23 00:53:46;;;;;;;;;;;;;;;;;;5018667;28;19909;-21
2023/04/23 00:56:12;;;;;;;;;;;;;;;;;;5018674;28;20439;-22
2023/04/23 00:58:38;;;;;;;;;;;;;;;;;;5036462;28;19932;-23
2023/04/23 01:01:04;;;;;;;;;;;;;;;;;;5036237;28;19909;-23
2023/04/23 01:03:30;;;;;;;;;;;;;;;;;;5035889;28;19924;-22
2023/04/23 01:05:56;;;;;;;;;;;;;;;;;;5036142;28;19909;-23
2023/04/23 01:08:22;;;;;;;;;;;;;;;;;;5035979;28;19966;-22
2023/04/23 01:10:48;;;;;;;;;;;;;;;;;;5036224;28;19916;-21
2023/04/23 01:13:14;;;;;;;;;;;;;;;;;;5035842;28;20003;-21
2023/04/23 01:15:40;;;;;;;;;;;;;;;;;;5035826;28;19935;-24
2023/04/23 01:18:06;;;;;;;;;;;;;;;;;;5035795;28;19909;-23
2023/04/23 01:20:32;;;;;;;;;;;;;;;;;;5036040;28;19951;-23
2023/04/23 01:22:58;;;;;;;;;;;;;;;;;;5035654;28;19999;-21
2023/04/23 01:25:24;;;;;;;;;;;;;;;;;;5018311;28;20216;-21
2023/04/23 01:27:50;;;;;;;;;;;;;;;;;;5035921;28;20104;-22
2023/04/23 01:30:16;;;;;;;;;;;;;;;;;;5035528;28;19999;-22
2023/04/23 01:32:42;;;;;;;;;;;;;;;;;;5035501;28;19948;-22
2023/04/23 01:35:08;;;;;;;;;;;;;;;;;;5035426;28;19988;-21
2023/04/23 01:37:35;;;;;;;;;;;;;;;;;;5035351;28;19910;-21
2023/04/23 01:40:01;;;;;;;;;;;;;;;;;;5035465;28;19909;-22
2023/04/23 01:42:27;;;;;;;;;;;;;;;;;;5035339;28;20285;-21
2023/04/23 01:44:53;;;;;;;;;;;;;;;;;;5035570;28;19917;-23
2023/04/23 01:47:19;;;;;;;;;;;;;;;;;;5035314;28;19920;-22
2023/04/23 01:49:45;;;;;;;;;;;;;;;;;;5035203;28;19953;-21
2023/04/23 01:52:11;;;;;;;;;;;;;;;;;;5035176;28;19916;-22
2023/04/23 01:54:37;;;;;;;;;;;;;;;;;;5035339;28;20324;-22
2023/04/23 01:57:03;;;;;;;;;;;;;;;;;;5035392;28;19999;-22
2023/04/23 01:59:28;;;;;;;;;;;;;;;;;;5035159;28;19945;-23
2023/04/23 02:01:54;;;;;;;;;;;;;;;;;;5035236;28;20217;-23
2023/04/23 02:04:20;;;;;;;;;;;;;;;;;;5034857;28;20078;-23
2023/04/23 02:06:46;;;;;;;;;;;;;;;;;;5034974;28;19909;-21
2023/04/23 02:09:12;;;;;;;;;;;;;;;;;;5035165;28;19970;-21
2023/04/23 02:11:38;;;;;;;;;;;;;;;;;;5035146;28;19909;-21
2023/04/23 02:14:04;;;;;;;;;;;;;;;;;;5035097;28;20430;-21
2023/04/23 02:16:31;;;;;;;;;;;;;;;;;;5034871;28;20356;-21
2023/04/23 02:18:57;;;;;;;;;;;;;;;;;;5034860;28;20404;-23
2023/04/23 02:21:23;;;;;;;;;;;;;;;;;;5035049;28;19971;-21
2023/04/23 02:23:49;;;;;;;;;;;;;;;;;;5034932;28;19913;-21
2023/04/23 02:26:15;;;;;;;;;;;;;;;;;;5034732;28;19909;-21
2023/04/23 02:28:41;;;;;;;;;;;;;;;;;;5034707;28;19999;-21
2023/04/23 02:31:07;;;;;;;;;;;;;;;;;;5034865;28;20359;-20
2023/04/23 02:33:33;;;;;;;;;;;;;;;;;;5034564;28;19913;-22
2023/04/23 02:35:59;;;;;;;;;;;;;;;;;;5034490;28;20095;-23
2023/04/23 02:38:25;;;;;;;;;;;;;;;;;;5034844;28;20016;-21
2023/04/23 02:40:51;;;;;;;;;;;;;;;;;;5034695;28;19920;-21
2023/04/23 02:43:17;;;;;;;;;;;;;;;;;;5023258;28;19908;-20
2023/04/23 02:45:43;;;;;;;;;;;;;;;;;;5041379;28;19913;-21
2023/04/23 02:48:09;;;;;;;;;;;;;;;;;;5041050;28;19909;-22
2023/04/23 02:50:37;;;;;;;;;;;;;;;;;;5041019;28;19913;-22
2023/04/23 02:53:04;;;;;;;;;;;;;;;;;;5040992;28;19913;-21
2023/04/23 02:55:30;;;;;;;;;;;;;;;;;;5041033;28;20021;-22
2023/04/23 02:57:57;;;;;;;;;;;;;;;;;;5041039;28;19909;-22
2023/04/23 03:00:23;;;;;;;;;;;;;;;;;;5041010;28;19920;-22
2023/04/23 03:02:49;;;;;;;;;;;;;;;;;;5040897;28;19909;-22
2023/04/23 03:05:15;;;;;;;;;;;;;;;;;;5040801;28;19924;-21
2023/04/23 03:07:40;;;;;;;;;;;;;;;;;;5041155;28;19909;-21
2023/04/23 03:10:07;;;;;;;;;;;;;;;;;;5040912;28;19920;-20
2023/04/23 03:12:33;;;;;;;;;;;;;;;;;;5040756;28;20000;-20
2023/04/23 03:14:59;;;;;;;;;;;;;;;;;;5041037;28;20019;-23
2023/04/23 03:17:25;;;;;;;;;;;;;;;;;;5040891;28;20233;-22
2023/04/23 03:19:51;;;;;;;;;;;;;;;;;;5041050;28;19971;-21
2023/04/23 03:22:16;;;;;;;;;;;;;;;;;;5040739;28;20047;-21
2023/04/23 03:24:42;;;;;;;;;;;;;;;;;;5041070;28;19916;-21
2023/04/23 03:27:08;;;;;;;;;;;;;;;;;;5040723;28;20258;-22
2023/04/23 03:29:35;;;;;;;;;;;;;;;;;;5040682;28;19916;-22
2023/04/23 03:32:01;;;;;;;;;;;;;;;;;;5040845;28;19909;-22
2023/04/23 03:34:26;;;;;;;;;;;;;;;;;;5040684;28;19921;-21
2023/04/23 03:36:52;;;;;;;;;;;;;;;;;;5040895;28;19924;-22
2023/04/23 03:39:18;;;;;;;;;;;;;;;;;;5040609;28;19963;-22
2023/04/23 03:41:44;;;;;;;;;;;;;;;;;;5040794;28;19916;-21
2023/04/23 03:44:10;;;;;;;;;;;;;;;;;;5040702;28;19919;-22
2023/04/23 03:46:36;;;;;;;;;;;;;;;;;;5040519;28;19992;-22
2023/04/23 03:49:02;;;;;;;;;;;;;;;;;;5040793;28;20386;-22
2023/04/23 03:51:28;;;;;;;;;;;;;;;;;;5040486;28;20005;-21
2023/04/23 03:53:54;;;;;;;;;;;;;;;;;;5037225;28;19992;-20
2023/04/23 03:56:20;;;;;;;;;;;;;;;;;;5037338;28;19924;-21
2023/04/23 03:58:46;;;;;;;;;;;;;;;;;;5019972;28;19909;-23
2023/04/23 04:01:12;;;;;;;;;;;;;;;;;;5019784;28;19939;-22
2023/04/23 04:03:38;;;;;;;;;;;;;;;;;;5016225;28;20226;-23
2023/04/23 04:06:04;;;;;;;;;;;;;;;;;;5017631;28;20012;-22
2023/04/23 04:08:30;;;;;;;;;;;;;;;;;;5017700;28;19910;-21
2023/04/23 04:10:56;;;;;;;;;;;;;;;;;;5017359;28;19916;-21
2023/04/23 04:13:22;;;;;;;;;;;;;;;;;;5017165;28;19967;-22
2023/04/23 04:15:48;;;;;;;;;;;;;;;;;;5017428;28;20030;-21
2023/04/23 04:18:14;;;;;;;;;;;;;;;;;;5017235;28;19914;-22
2023/04/23 04:20:43;;;;;;;;;;;;;;;;;;5017176;28;20345;-22
2023/04/23 04:23:09;;;;;;;;;;;;;;;;;;5017039;28;19941;-23
2023/04/23 04:25:38;;;;;;;;;;;;;;;;;;5017065;28;20356;-23
2023/04/23 04:28:06;;;;;;;;;;;;;;;;;;5016967;28;19917;-22
2023/04/23 04:30:32;;;;;;;;;;;;;;;;;;5016892;28;19956;-22
2023/04/23 04:33:00;;;;;;;;;;;;;;;;;;5016811;28;19909;-22
2023/04/23 04:35:26;;;;;;;;;;;;;;;;;;5017066;28;20245;-22
2023/04/23 04:37:52;;;;;;;;;;;;;;;;;;5016757;28;19910;-22
2023/04/23 04:40:18;;;;;;;;;;;;;;;;;;5015826;28;19983;-22
2023/04/23 04:42:45;;;;;;;;;;;;;;;;;;5016702;28;19909;-21
2023/04/23 04:45:11;;;;;;;;;;;;;;;;;;5016440;28;20236;-21
2023/04/23 04:47:37;;;;;;;;;;;;;;;;;;5016634;28;19910;-22
2023/04/23 04:50:03;;;;;;;;;;;;;;;;;;5016656;28;19953;-21
2023/04/23 04:52:29;;;;;;;;;;;;;;;;;;5015507;28;19920;-22
2023/04/23 04:54:55;;;;;;;;;;;;;;;;;;5016706;28;19909;-22
2023/04/23 04:57:21;;;;;;;;;;;;;;;;;;5016710;28;20243;-22
2023/04/23 04:59:47;;;;;;;;;;;;;;;;;;5016368;28;19983;-21
2023/04/23 05:02:13;;;;;;;;;;;;;;;;;;5016252;28;19949;-21
2023/04/23 05:04:39;;;;;;;;;;;;;;;;;;5014768;28;19918;-23
2023/04/23 05:07:05;;;;;;;;;;;;;;;;;;5016268;28;19932;-22
2023/04/23 05:09:31;;;;;;;;;;;;;;;;;;5016218;28;19924;-23
2023/04/23 05:11:57;;;;;;;;;;;;;;;;;;5016399;28;20362;-22
2023/04/23 05:14:25;;;;;;;;;;;;;;;;;;5016157;28;19913;-22
2023/04/23 05:16:51;;;;;;;;;;;;;;;;;;5016060;28;19917;-21
2023/04/23 05:19:17;;;;;;;;;;;;;;;;;;5016268;28;19970;-22
2023/04/23 05:21:43;;;;;;;;;;;;;;;;;;5015993;28;19960;-22
2023/04/23 05:24:09;;;;;;;;;;;;;;;;;;5016053;28;19909;-21
2023/04/23 05:26:35;;;;;;;;;;;;;;;;;;5015872;28;19956;-22
2023/04/23 05:29:01;;;;;;;;;;;;;;;;;;5014926;28;19988;-21
2023/04/23 05:31:27;;;;;;;;;;;;;;;;;;5015826;28;20322;-22
2023/04/23 05:33:53;;;;;;;;;;;;;;;;;;5016034;28;20234;-22
2023/04/23 05:36:19;;;;;;;;;;;;;;;;;;5014677;28;19914;-22
2023/04/23 05:38:45;;;;;;;;;;;;;;;;;;5015660;28;20406;-21
2023/04/23 05:41:11;;;;;;;;;;;;;;;;;;5015647;28;19909;-21
2023/04/23 05:43:37;;;;;;;;;;;;;;;;;;5016232;28;19910;-23
2023/04/23 05:46:05;;;;;;;;;;;;;;;;;;5015555;28;19910;-22
2023/04/23 05:48:31;;;;;;;;;;;;;;;;;;5015546;28;19909;-23
2023/04/23 05:50:57;;;;;;;;;;;;;;;;;;5015511;28;19910;-23
2023/04/23 05:53:23;;;;;;;;;;;;;;;;;;5015410;28;19913;-22
2023/04/23 05:55:48;;;;;;;;;;;;;;;;;;5015379;28;20257;-21
2023/04/23 05:58:15;;;;;;;;;;;;;;;;;;5015363;28;19910;-21
2023/04/23 06:00:41;;;;;;;;;;;;;;;;;;5015568;28;19971;-21
2023/04/23 06:03:07;;;;;;;;;;;;;;;;;;5015737;28;20340;-22
2023/04/23 06:05:33;;;;;;;;;;;;;;;;;;5034993;28;19913;-22
2023/04/23 06:07:59;;;;;;;;;;;;;;;;;;5034945;28;19917;-22
2023/04/23 06:10:24;;;;;;;;;;;;;;;;;;5034860;28;20000;-22
2023/04/23 06:12:53;;;;;;;;;;;;;;;;;;5035073;28;19909;-21
2023/04/23 06:15:19;;;;;;;;;;;;;;;;;;5034693;28;19917;-21
2023/04/23 06:17:44;;;;;;;;;;;;;;;;;;5034085;28;19909;-21
2023/04/23 06:20:10;;;;;;;;;;;;;;;;;;5034715;28;19956;-22
2023/04/23 06:22:37;;;;;;;;;;;;;;;;;;5034622;28;19978;-22
2023/04/23 06:25:03;;;;;;;;;;;;;;;;;;5034915;28;20247;-21
2023/04/23 06:27:29;;;;;;;;;;;;;;;;;;5017243;28;19909;-22
2023/04/23 06:29:55;;;;;;;;;;;;;;;;;;5034635;28;20204;-21
2023/04/23 06:32:21;;;;;;;;;;;;;;;;;;5034965;28;19909;-22
2023/04/23 06:34:47;;;;;;;;;;;;;;;;;;5034466;28;19908;-22
2023/04/23 06:37:13;;;;;;;;;;;;;;;;;;5034534;28;19935;-21
2023/04/23 06:39:39;;;;;;;;;;;;;;;;;;5034545;28;20352;-23
2023/04/23 06:42:05;;;;;;;;;;;;;;;;;;5017038;28;19916;-21
2023/04/23 06:44:31;;;;;;;;;;;;;;;;;;5034569;28;20275;-21
2023/04/23 06:46:57;;;;;;;;;;;;;;;;;;5034711;28;19920;-22
2023/04/23 06:49:23;;;;;;;;;;;;;;;;;;5034434;28;20421;-22
2023/04/23 06:51:49;;;;;;;;;;;;;;;;;;5034712;28;19910;-21
2023/04/23 06:54:15;;;;;;;;;;;;;;;;;;5034705;28;20309;-20
2023/04/23 06:56:41;;;;;;;;;;;;;;;;;;5034285;28;20259;-21
2023/04/23 06:59:07;;;;;;;;;;;;;;;;;;5034390;28;19917;-22
2023/04/23 07:01:33;;;;;;;;;;;;;;;;;;5034379;28;19963;-22
2023/04/23 07:03:59;;;;;;;;;;;;;;;;;;5034080;28;19983;-23
2023/04/23 07:06:26;;;;;;;;;;;;;;;;;;5034575;28;20259;-21
2023/04/23 07:08:52;;;;;;;;;;;;;;;;;;5034199;28;19909;-21
2023/04/23 07:11:18;;;;;;;;;;;;;;;;;;5034225;28;19991;-20
2023/04/23 07:13:44;;;;;;;;;;;;;;;;;;5034417;28;19909;-21
2023/04/23 07:16:10;;;;;;;;;;;;;;;;;;5016763;28;19975;-21
2023/04/23 07:18:36;;;;;;;;;;;;;;;;;;5034205;28;20248;-24
2023/04/23 07:21:02;;;;;;;;;;;;;;;;;;5034143;28;19936;-22
2023/04/23 07:23:28;;;;;;;;;;;;;;;;;;5034060;28;19909;-21
2023/04/23 07:25:54;;;;;;;;;;;;;;;;;;5034369;28;19917;-21
2023/04/23 07:28:20;;;;;;;;;;;;;;;;;;5035835;28;19963;-22
2023/04/23 07:30:46;;;;;;;;;;;;;;;;;;5037937;28;20411;-22
2023/04/23 07:33:12;;;;;;;;;;;;;;;;;;5037791;28;19917;-22
2023/04/23 07:35:38;;;;;;;;;;;;;;;;;;5020310;28;20023;-22
2023/04/23 07:38:04;;;;;;;;;;;;;;;;;;5020273;28;20004;-22
2023/04/23 07:40:30;;;;;;;;;;;;;;;;;;5020257;28;20264;-21
2023/04/23 07:42:58;;;;;;;;;;;;;;;;;;5037654;28;19944;-24
2023/04/23 07:45:24;;;;;;;;;;;;;;;;;;5037680;28;19987;-21
2023/04/23 07:47:50;;;;;;;;;;;;;;;;;;5037552;28;19955;-22
2023/04/23 07:50:15;;;;;;;;;;;;;;;;;;5037535;28;19971;-21
2023/04/23 07:52:41;;;;;;;;;;;;;;;;;;5019929;28;19909;-21
2023/04/23 07:55:07;;;;;;;;;;;;;;;;;;5037668;28;19952;-21
2023/04/23 07:57:33;;;;;;;;;;;;;;;;;;5037654;28;20336;-20
2023/04/23 07:59:59;;;;;;;;;;;;;;;;;;5019794;28;19932;-21
2023/04/23 08:02:26;;;;;;;;;;;;;;;;;;5037295;28;20264;-22
2023/04/23 08:04:52;;;;;;;;;;;;;;;;;;5037094;28;20375;-21
2023/04/23 08:07:18;;;;;;;;;;;;;;;;;;5037452;28;19917;-23
2023/04/23 08:09:44;;;;;;;;;;;;;;;;;;5037191;28;20340;-21
2023/04/23 08:12:10;;;;;;;;;;;;;;;;;;5037290;28;19925;-21
2023/04/23 08:14:36;;;;;;;;;;;;;;;;;;5037311;28;19921;-21
2023/04/23 08:17:02;;;;;;;;;;;;;;;;;;5036979;28;19925;-21
2023/04/23 08:19:32;;;;;;;;;;;;;;;;;;5036909;28;19963;-21
2023/04/23 08:21:58;;;;;;;;;;;;;;;;;;5036840;28;19948;-22
2023/04/23 08:24:24;;;;;;;;;;;;;;;;;;5037141;28;19969;-21
2023/04/23 08:26:50;;;;;;;;;;;;;;;;;;5036837;28;19910;-21
2023/04/23 08:29:16;;;;;;;;;;;;;;;;;;5019374;28;20344;-21
2023/04/23 08:31:42;;;;;;;;;;;;;;;;;;5036813;28;19916;-20
2023/04/23 08:34:08;;;;;;;;;;;;;;;;;;5036668;28;19909;-23
2023/04/23 08:36:35;;;;;;;;;;;;;;;;;;5036865;28;19924;-23
2023/04/23 08:39:02;;;;;;;;;;;;;;;;;;5036160;28;19925;-22
2023/04/23 08:41:28;;;;;;;;;;;;;;;;;;5018783;28;20336;-22
2023/04/23 08:43:54;;;;;;;;;;;;;;;;;;5036479;28;19921;-22
2023/04/23 08:46:20;;;;;;;;;;;;;;;;;;5036767;28;20259;-22
2023/04/23 08:48:46;;;;;;;;;;;;;;;;;;5036684;28;19913;-21
2023/04/23 08:51:12;;;;;;;;;;;;;;;;;;5036420;28;19916;-21
2023/04/23 08:53:38;;;;;;;;;;;;;;;;;;5036258;28;19909;-22
2023/04/23 08:56:05;;;;;;;;;;;;;;;;;;5036504;28;19913;-21
2023/04/23 08:58:30;;;;;;;;;;;;;;;;;;5036480;28;19936;-23
2023/04/23 09:00:56;;;;;;;;;;;;;;;;;;5036508;28;19909;-22
2023/04/23 09:03:23;;;;;;;;;;;;;;;;;;5035870;28;20287;-23
2023/04/23 09:05:49;;;;;;;;;;;;;;;;;;5036463;28;19913;-21
2023/04/23 09:08:15;;;;;;;;;;;;;;;;;;5036071;28;19909;-22
2023/04/23 09:10:41;;;;;;;;;;;;;;;;;;5018552;28;19916;-22
2023/04/23 09:13:07;;;;;;;;;;;;;;;;;;5018382;28;19966;-22
2023/04/23 09:15:37;;;;;;;;;;;;;;;;;;5036135;28;19921;-22
2023/04/23 09:18:03;;;;;;;;;;;;;;;;;;5035777;28;20370;-21
2023/04/23 09:20:29;;;;;;;;;;;;;;;;;;5035798;28;20016;-22
2023/04/23 09:22:55;;;;;;;;;;;;;;;;;;5035931;28;19939;-22
2023/04/23 09:25:21;;;;;;;;;;;;;;;;;;5035954;28;19944;-21
2023/04/23 09:27:47;;;;;;;;;;;;;;;;;;5035723;28;19909;-23
2023/04/23 09:30:13;;;;;;;;;;;;;;;;;;5035740;28;19913;-21
2023/04/23 09:32:40;;;;;;;;;;;;;;;;;;5035792;28;20317;-22
2023/04/23 09:35:06;;;;;;;;;;;;;;;;;;5035815;28;20244;-21
2023/04/23 09:37:32;;;;;;;;;;;;;;;;;;5035437;28;19959;-21
2023/04/23 09:39:58;;;;;;;;;;;;;;;;;;5035709;28;19913;-21
2023/04/23 09:42:24;;;;;;;;;;;;;;;;;;5035536;28;19971;-22
2023/04/23 09:44:50;;;;;;;;;;;;;;;;;;5035673;28;19959;-22
2023/04/23 09:47:16;;;;;;;;;;;;;;;;;;5035297;28;20284;-22
2023/04/23 09:49:42;;;;;;;;;;;;;;;;;;5036019;28;19909;-21
2023/04/23 09:52:08;;;;;;;;;;;;;;;;;;5034412;28;20066;-21
2023/04/23 09:54:35;;;;;;;;;;;;;;;;;;5035217;28;19913;-21
2023/04/23 09:57:01;;;;;;;;;;;;;;;;;;5035029;28;19912;-22
2023/04/23 09:59:27;;;;;;;;;;;;;;;;;;5035138;28;20311;-21
2023/04/23 10:01:53;;;;;;;;;;;;;;;;;;5035119;28;19913;-21
2023/04/23 10:04:20;;;;;;;;;;;;;;;;;;5034862;28;19967;-22
2023/04/23 10:06:46;;;;;;;;;;;;;;;;;;5035039;28;19940;-23
2023/04/23 10:09:12;;;;;;;;;;;;;;;;;;5035391;28;19910;-23
2023/04/23 10:11:37;;;;;;;;;;;;;;;;;;5034868;28;20261;-21
2023/04/23 10:14:03;;;;;;;;;;;;;;;;;;5034849;28;20356;-21
2023/04/23 10:16:29;;;;;;;;;;;;;;;;;;5034781;28;20378;-22
2023/04/23 10:18:55;;;;;;;;;;;;;;;;;;5035067;28;20405;-24
2023/04/23 10:21:21;;;;;;;;;;;;;;;;;;5034876;28;19909;-21
2023/04/23 10:23:47;;;;;;;;;;;;;;;;;;5034778;28;19909;-21
2023/04/23 10:26:13;;;;;;;;;;;;;;;;;;5034826;28;19913;-22
2023/04/23 10:28:39;;;;;;;;;;;;;;;;;;5035021;28;19940;-21
2023/04/23 10:31:05;;;;;;;;;;;;;;;;;;5034624;28;19925;-22
2023/04/23 10:33:31;;;;;;;;;;;;;;;;;;5034857;28;19920;-22
2023/04/23 10:35:57;;;;;;;;;;;;;;;;;;5034578;28;19956;-22
2023/04/23 10:38:23;;;;;;;;;;;;;;;;;;5034889;28;19909;-20
2023/04/23 10:40:49;;;;;;;;;;;;;;;;;;5034613;28;19909;-21
2023/04/23 10:43:15;;;;;;;;;;;;;;;;;;5034788;28;19916;-22
2023/04/23 10:45:41;;;;;;;;;;;;;;;;;;5034492;28;20288;-23
2023/04/23 10:48:07;;;;;;;;;;;;;;;;;;5034481;28;20340;-21
2023/04/23 10:50:33;;;;;;;;;;;;;;;;;;5034481;28;19919;-22
2023/04/23 10:52:59;;;;;;;;;;;;;;;;;;5034444;28;19913;-20
2023/04/23 10:55:25;;;;;;;;;;;;;;;;;;5034354;28;19913;-21
2023/04/23 10:57:51;;;;;;;;;;;;;;;;;;5034722;28;19967;-21
2023/04/23 11:00:17;;;;;;;;;;;;;;;;;;5034424;28;20255;-23
2023/04/23 11:02:46;;;;;;;;;;;;;;;;;;5035374;28;20410;-22
2023/04/23 11:05:12;;;;;;;;;;;;;;;;;;5017489;28;20341;-22
2023/04/23 11:07:38;;;;;;;;;;;;;;;;;;5018515;28;20006;-22
2023/04/23 11:10:04;;;;;;;;;;;;;;;;;;5018790;28;19996;-22
2023/04/23 11:12:30;;;;;;;;;;;;;;;;;;5018458;28;20281;-24
2023/04/23 11:14:58;;;;;;;;;;;;;;;;;;5018656;28;20007;-22
2023/04/23 11:17:24;;;;;;;;;;;;;;;;;;5018446;28;20000;-21
2023/04/23 11:19:50;;;;;;;;;;;;;;;;;;5018437;28;19952;-21
2023/04/23 11:22:18;;;;;;;;;;;;;;;;;;5017199;28;19920;-22
2023/04/23 11:24:45;;;;;;;;;;;;;;;;;;5018323;28;19926;-21
2023/04/23 11:27:11;;;;;;;;;;;;;;;;;;5018166;28;20337;-22
2023/04/23 11:29:38;;;;;;;;;;;;;;;;;;5018073;28;19924;-22
2023/04/23 11:32:09;;;;;;;;;;;;;;;;;;5018322;28;19914;-21
2023/04/23 11:34:35;;;;;;;;;;;;;;;;;;5018302;28;20004;-22
2023/04/23 11:37:01;;;;;;;;;;;;;;;;;;5017954;28;19963;-21
2023/04/23 11:39:27;;;;;;;;;;;;;;;;;;5018261;28;19910;-21
2023/04/23 11:41:53;;;;;;;;;;;;;;;;;;5017877;28;19914;-23
2023/04/23 11:44:20;;;;;;;;;;;;;;;;;;5017890;28;19916;-22
2023/04/23 11:46:46;;;;;;;;;;;;;;;;;;5018157;28;19945;-22
2023/04/23 11:49:12;;;;;;;;;;;;;;;;;;5018040;28;19910;-21
2023/04/23 11:51:39;;;;;;;;;;;;;;;;;;5018033;28;20324;-22
2023/04/23 11:54:05;;;;;;;;;;;;;;;;;;5017914;28;19910;-22
2023/04/23 11:56:31;;;;;;;;;;;;;;;;;;5017581;28;19991;-20
2023/04/23 11:58:57;;;;;;;;;;;;;;;;;;5017559;28;19916;-21
2023/04/23 12:01:23;;;;;;;;;;;;;;;;;;5017572;28;20363;-23
2023/04/23 12:03:49;;;;;;;;;;;;;;;;;;5023317;28;19917;-22
2023/04/23 12:06:15;;;;;;;;;;;;;;;;;;5037252;28;20360;-22
2023/04/23 12:08:42;;;;;;;;;;;;;;;;;;5037408;28;19948;-22
2023/04/23 12:11:08;;;;;;;;;;;;;;;;;;5037466;28;19917;-22
2023/04/23 12:13:33;;;;;;;;;;;;;;;;;;5036930;28;20133;-22
2023/04/23 12:15:59;;;;;;;;;;;;;;;;;;5036153;28;19917;-21
2023/04/23 12:18:25;;;;;;;;;;;;;;;;;;5037020;28;19909;-21
2023/04/23 12:20:51;;;;;;;;;;;;;;;;;;5037016;28;19937;-21
2023/04/23 12:23:17;;;;;;;;;;;;;;;;;;5036944;28;19967;-22
2023/04/23 12:25:43;;;;;;;;;;;;;;;;;;5036901;28;20402;-21
2023/04/23 12:28:09;;;;;;;;;;;;;;;;;;5036890;28;19951;-21
2023/04/23 12:30:35;;;;;;;;;;;;;;;;;;5036748;28;20364;-21
2023/04/23 12:33:01;;;;;;;;;;;;;;;;;;5036936;28;19949;-20
2023/04/23 12:35:27;;;;;;;;;;;;;;;;;;5036622;28;19960;-23
2023/04/23 12:37:53;;;;;;;;;;;;;;;;;;5036683;28;20063;-22
2023/04/23 12:40:20;;;;;;;;;;;;;;;;;;5036645;28;19967;-23
2023/04/23 12:42:46;;;;;;;;;;;;;;;;;;5036593;28;20015;-22
2023/04/23 12:45:12;;;;;;;;;;;;;;;;;;5019003;28;19940;-21
2023/04/23 12:47:38;;;;;;;;;;;;;;;;;;5036459;28;20303;-21
2023/04/23 12:50:04;;;;;;;;;;;;;;;;;;5036500;28;19920;-22
2023/04/23 12:52:30;;;;;;;;;;;;;;;;;;5036282;28;19920;-21
2023/04/23 12:54:57;;;;;;;;;;;;;;;;;;5036389;28;20240;-23
2023/04/23 12:57:24;;;;;;;;;;;;;;;;;;5036248;28;20241;-22
2023/04/23 12:59:50;;;;;;;;;;;;;;;;;;5036306;28;19920;-23
2023/04/23 13:02:16;;;;;;;;;;;;;;;;;;5036154;28;19920;-21
2023/04/23 13:04:42;;;;;;;;;;;;;;;;;;5035930;28;19927;-23
2023/04/23 13:07:08;;;;;;;;;;;;;;;;;;5036052;28;20231;-22
2023/04/23 13:09:34;;;;;;;;;;;;;;;;;;5036330;28;20291;-22
2023/04/23 13:12:01;;;;;;;;;;;;;;;;;;5035873;28;19909;-21
2023/04/23 13:14:27;;;;;;;;;;;;;;;;;;5035925;28;20379;-21
2023/04/23 13:16:53;;;;;;;;;;;;;;;;;;5036094;28;19960;-22
2023/04/23 13:19:19;;;;;;;;;;;;;;;;;;5035873;28;19909;-22
2023/04/23 13:21:45;;;;;;;;;;;;;;;;;;5035839;28;19939;-22
2023/04/23 13:24:11;;;;;;;;;;;;;;;;;;5035706;28;19914;-23
2023/04/23 13:26:37;;;;;;;;;;;;;;;;;;5035452;28;19909;-21
2023/04/23 13:29:03;;;;;;;;;;;;;;;;;;5035675;28;19909;-22
2023/04/23 13:31:30;;;;;;;;;;;;;;;;;;5035594;28;19915;-22
2023/04/23 13:33:56;;;;;;;;;;;;;;;;;;5035533;28;19919;-21
2023/04/23 13:36:22;;;;;;;;;;;;;;;;;;5035496;28;20020;-23
2023/04/23 13:38:48;;;;;;;;;;;;;;;;;;5035520;28;19948;-22
2023/04/23 13:41:14;;;;;;;;;;;;;;;;;;5035774;28;19913;-23
2023/04/23 13:43:40;;;;;;;;;;;;;;;;;;5035600;28;19909;-21
2023/04/23 13:46:06;;;;;;;;;;;;;;;;;;5035383;28;20000;-22
2023/04/23 13:48:32;;;;;;;;;;;;;;;;;;5035326;28;19909;-21
2023/04/23 13:50:58;;;;;;;;;;;;;;;;;;5035276;28;19919;-22
2023/04/23 13:53:24;;;;;;;;;;;;;;;;;;5035169;28;20004;-23
2023/04/23 13:55:50;;;;;;;;;;;;;;;;;;5035419;28;19913;-22
2023/04/23 13:58:16;;;;;;;;;;;;;;;;;;5035379;28;20337;-22
2023/04/23 14:00:42;;;;;;;;;;;;;;;;;;5035027;28;19909;-22
2023/04/23 14:03:08;;;;;;;;;;;;;;;;;;5035039;28;19909;-21
2023/04/23 14:05:34;;;;;;;;;;;;;;;;;;5035026;28;19917;-22
2023/04/23 14:08:00;;;;;;;;;;;;;;;;;;5035044;28;19963;-22
2023/04/23 14:10:25;;;;;;;;;;;;;;;;;;5034994;28;19909;-23
2023/04/23 14:12:52;;;;;;;;;;;;;;;;;;5034886;28;19981;-22
2023/04/23 14:15:18;;;;;;;;;;;;;;;;;;5034855;28;19909;-22
2023/04/23 14:17:44;;;;;;;;;;;;;;;;;;5035137;28;19920;-20
2023/04/23 14:20:10;;;;;;;;;;;;;;;;;;5035154;28;20328;-21
2023/04/23 14:22:36;;;;;;;;;;;;;;;;;;5034659;28;19910;-22
2023/04/23 14:25:02;;;;;;;;;;;;;;;;;;5035034;28;19952;-21
2023/04/23 14:27:29;;;;;;;;;;;;;;;;;;5034729;28;19928;-22
2023/04/23 14:29:55;;;;;;;;;;;;;;;;;;5034922;28;19909;-21
2023/04/23 14:32:21;;;;;;;;;;;;;;;;;;5034639;28;20222;-22
2023/04/23 14:34:47;;;;;;;;;;;;;;;;;;5017238;28;20000;-21
2023/04/23 14:37:13;;;;;;;;;;;;;;;;;;5033993;28;20451;-24
2023/04/23 14:39:39;;;;;;;;;;;;;;;;;;5034483;28;19979;-22
2023/04/23 14:42:05;;;;;;;;;;;;;;;;;;5017039;28;20260;-21
2023/04/23 14:44:31;;;;;;;;;;;;;;;;;;5017072;28;19909;-22
2023/04/23 14:46:57;;;;;;;;;;;;;;;;;;5034794;28;19949;-22
2023/04/23 14:49:23;;;;;;;;;;;;;;;;;;5034531;28;19917;-22
2023/04/23 14:51:49;;;;;;;;;;;;;;;;;;5034645;28;19909;-23
2023/04/23 14:54:15;;;;;;;;;;;;;;;;;;5034494;28;20272;-21
2023/04/23 14:56:41;;;;;;;;;;;;;;;;;;5034418;28;19917;-21
2023/04/23 14:59:07;;;;;;;;;;;;;;;;;;5034721;28;20027;-21
2023/04/23 15:01:33;;;;;;;;;;;;;;;;;;5034912;28;19957;-21
2023/04/23 15:03:59;;;;;;;;;;;;;;;;;;5034035;28;19975;-23
2023/04/23 15:06:25;;;;;;;;;;;;;;;;;;5034366;28;19909;-22
2023/04/23 15:08:51;;;;;;;;;;;;;;;;;;5034553;28;20251;-22
2023/04/23 15:11:17;;;;;;;;;;;;;;;;;;5034301;28;20434;-22
2023/04/23 15:13:44;;;;;;;;;;;;;;;;;;5034261;28;20371;-21
2023/04/23 15:16:12;;;;;;;;;;;;;;;;;;5033431;28;21234;-22
2023/04/23 15:18:38;;;;;;;;;;;;;;;;;;5034201;28;19910;-21
2023/04/23 15:21:04;;;;;;;;;;;;;;;;;;5034460;28;19913;-22
2023/04/23 15:23:29;;;;;;;;;;;;;;;;;;5034095;28;19999;-23
2023/04/23 15:25:55;;;;;;;;;;;;;;;;;;5034166;28;20294;-21
2023/04/23 15:28:22;;;;;;;;;;;;;;;;;;5034714;28;19916;-22
2023/04/23 15:30:48;;;;;;;;;;;;;;;;;;5034063;28;19952;-21
2023/04/23 15:33:14;;;;;;;;;;;;;;;;;;5034060;28;19959;-21
2023/04/23 15:35:40;;;;;;;;;;;;;;;;;;5034212;28;19913;-22
2023/04/23 15:38:06;;;;;;;;;;;;;;;;;;5034021;28;20270;-24
2023/04/23 15:40:39;;;;;;;;;;;;;;;;;;5034002;28;20363;-21
2023/04/23 15:43:05;;;;;;;;;;;;;;;;;;5034216;28;20271;-24
2023/04/23 15:45:31;;;;;;;;;;;;;;;;;;5034037;28;19995;-23
2023/04/23 15:47:57;;;;;;;;;;;;;;;;;;5034254;28;19916;-21
2023/04/23 15:50:25;;;;;;;;;;;;;;;;;;5037660;28;19909;-22
2023/04/23 15:52:51;;;;;;;;;;;;;;;;;;5037504;28;20360;-21
2023/04/23 15:55:17;;;;;;;;;;;;;;;;;;5020010;28;19909;-22
2023/04/23 15:57:43;;;;;;;;;;;;;;;;;;5037409;28;20363;-21
2023/04/23 16:00:09;;;;;;;;;;;;;;;;;;5037407;28;19909;-22
2023/04/23 16:02:36;;;;;;;;;;;;;;;;;;5037432;28;19909;-22
2023/04/23 16:05:02;;;;;;;;;;;;;;;;;;5037192;28;19917;-21
2023/04/23 16:07:28;;;;;;;;;;;;;;;;;;5037368;28;19916;-22
2023/04/23 16:09:54;;;;;;;;;;;;;;;;;;5037146;28;19963;-22
2023/04/23 16:12:20;;;;;;;;;;;;;;;;;;5037410;28;20231;-21
2023/04/23 16:14:46;;;;;;;;;;;;;;;;;;5037444;28;19995;-22
2023/04/23 16:17:12;;;;;;;;;;;;;;;;;;5037246;28;20293;-21
2023/04/23 16:19:38;;;;;;;;;;;;;;;;;;5036995;28;19917;-21
2023/04/23 16:22:04;;;;;;;;;;;;;;;;;;5019447;28;19924;-22
2023/04/23 16:24:30;;;;;;;;;;;;;;;;;;5036880;28;19959;-22
2023/04/23 16:26:56;;;;;;;;;;;;;;;;;;5036876;28;19916;-22
2023/04/23 16:29:22;;;;;;;;;;;;;;;;;;5019411;28;19909;-22
2023/04/23 16:31:48;;;;;;;;;;;;;;;;;;5037036;28;20283;-21
2023/04/23 16:34:14;;;;;;;;;;;;;;;;;;5037308;28;19932;-22
2023/04/23 16:36:40;;;;;;;;;;;;;;;;;;5036758;28;20237;-21